RJFN(METAR)
08/15 04:00
METAR RJFN 141900Z 25007KT 9999 FEW030 27/22 Q1010 RMK 1CU030 A2983=
戻る
トップページへ戻る
IMOC Co,.Ltd.